sensor_id;sensor_type;location;lat;lon;timestamp;temperature;humidity
1988;DHT22;12775;46.994;15.498;2022-12-10T00:01:20;6.60;99.90
1988;DHT22;12775;46.994;15.498;2022-12-10T00:03:47;6.60;99.90
1988;DHT22;12775;46.994;15.498;2022-12-10T00:06:18;6.60;99.90
1988;DHT22;12775;46.994;15.498;2022-12-10T00:08:42;6.60;99.90
1988;DHT22;12775;46.994;15.498;2022-12-10T00:11:09;6.60;99.90
1988;DHT22;12775;46.994;15.498;2022-12-10T00:13:36;6.60;99.90
1988;DHT22;12775;46.994;15.498;2022-12-10T00:16:04;6.60;99.90
1988;DHT22;12775;46.994;15.498;2022-12-10T00:18:31;6.60;99.90
1988;DHT22;12775;46.994;15.498;2022-12-10T00:21:01;6.60;99.90
1988;DHT22;12775;46.994;15.498;2022-12-10T00:23:27;6.70;99.90
1988;DHT22;12775;46.994;15.498;2022-12-10T00:25:54;6.70;99.90
1988;DHT22;12775;46.994;15.498;2022-12-10T00:28:22;6.70;99.90
1988;DHT22;12775;46.994;15.498;2022-12-10T00:30:49;6.70;99.90
1988;DHT22;12775;46.994;15.498;2022-12-10T00:33:16;6.70;99.90
1988;DHT22;12775;46.994;15.498;2022-12-10T00:35:44;6.70;99.90
1988;DHT22;12775;46.994;15.498;2022-12-10T00:38:11;6.70;99.90
1988;DHT22;12775;46.994;15.498;2022-12-10T00:40:38;6.70;99.90
1988;DHT22;12775;46.994;15.498;2022-12-10T00:43:06;6.70;99.90
1988;DHT22;12775;46.994;15.498;2022-12-10T00:45:33;6.70;99.90
1988;DHT22;12775;46.994;15.498;2022-12-10T00:48:01;6.70;99.90
1988;DHT22;12775;46.994;15.498;2022-12-10T00:50:28;6.70;99.90
1988;DHT22;12775;46.994;15.498;2022-12-10T00:52:56;6.60;99.90
1988;DHT22;12775;46.994;15.498;2022-12-10T00:55:23;6.70;99.90
1988;DHT22;12775;46.994;15.498;2022-12-10T00:57:51;6.60;99.90
1988;DHT22;12775;46.994;15.498;2022-12-10T01:00:20;6.70;99.90
1988;DHT22;12775;46.994;15.498;2022-12-10T01:02:47;6.60;99.90
1988;DHT22;12775;46.994;15.498;2022-12-10T01:05:14;6.60;99.90
1988;DHT22;12775;46.994;15.498;2022-12-10T01:07:42;6.50;99.90
1988;DHT22;12775;46.994;15.498;2022-12-10T01:10:09;6.50;99.90
1988;DHT22;12775;46.994;15.498;2022-12-10T01:12:37;6.50;99.90
1988;DHT22;12775;46.994;15.498;2022-12-10T01:15:05;6.60;99.90
1988;DHT22;12775;46.994;15.498;2022-12-10T01:17:32;6.50;99.90
1988;DHT22;12775;46.994;15.498;2022-12-10T01:20:00;6.50;99.90
1988;DHT22;12775;46.994;15.498;2022-12-10T01:22:27;6.50;99.90
1988;DHT22;12775;46.994;15.498;2022-12-10T01:24:55;6.50;99.90
1988;DHT22;12775;46.994;15.498;2022-12-10T01:27:22;6.50;99.90
1988;DHT22;12775;46.994;15.498;2022-12-10T01:29:50;6.60;99.90
1988;DHT22;12775;46.994;15.498;2022-12-10T01:32:17;6.60;99.90
1988;DHT22;12775;46.994;15.498;2022-12-10T01:34:44;6.60;99.90
1988;DHT22;12775;46.994;15.498;2022-12-10T01:37:12;6.60;99.90
1988;DHT22;12775;46.994;15.498;2022-12-10T01:39:39;6.60;99.90
1988;DHT22;12775;46.994;15.498;2022-12-10T01:42:09;6.60;99.90
1988;DHT22;12775;46.994;15.498;2022-12-10T01:47:22;6.70;99.90
1988;DHT22;12775;46.994;15.498;2022-12-10T01:49:50;6.70;99.90
1988;DHT22;12775;46.994;15.498;2022-12-10T01:52:18;6.70;99.90
1988;DHT22;12775;46.994;15.498;2022-12-10T01:54:45;6.70;99.90
1988;DHT22;12775;46.994;15.498;2022-12-10T01:57:29;6.70;99.90
1988;DHT22;12775;46.994;15.498;2022-12-10T01:59:59;6.70;99.90
1988;DHT22;12775;46.994;15.498;2022-12-10T02:02:50;6.70;99.90
1988;DHT22;12775;46.994;15.498;2022-12-10T02:05:22;6.70;99.90
1988;DHT22;12775;46.994;15.498;2022-12-10T02:11:07;6.80;99.90
1988;DHT22;12775;46.994;15.498;2022-12-10T02:13:30;6.70;99.90
1988;DHT22;12775;46.994;15.498;2022-12-10T02:16:03;6.80;99.90
1988;DHT22;12775;46.994;15.498;2022-12-10T02:18:29;6.80;99.90
1988;DHT22;12775;46.994;15.498;2022-12-10T02:20:56;6.80;99.90
1988;DHT22;12775;46.994;15.498;2022-12-10T02:23:28;6.90;99.90
1988;DHT22;12775;46.994;15.498;2022-12-10T02:26:37;6.90;99.90
1988;DHT22;12775;46.994;15.498;2022-12-10T02:28:52;6.90;99.90
1988;DHT22;12775;46.994;15.498;2022-12-10T02:31:18;7.00;99.90
1988;DHT22;12775;46.994;15.498;2022-12-10T02:33:48;7.00;99.90
1988;DHT22;12775;46.994;15.498;2022-12-10T02:36:13;7.00;99.90
1988;DHT22;12775;46.994;15.498;2022-12-10T02:38:41;7.00;99.90
1988;DHT22;12775;46.994;15.498;2022-12-10T02:41:10;7.00;99.90
1988;DHT22;12775;46.994;15.498;2022-12-10T02:43:35;7.10;99.90
1988;DHT22;12775;46.994;15.498;2022-12-10T02:46:03;7.10;99.90
1988;DHT22;12775;46.994;15.498;2022-12-10T02:48:31;7.10;99.90
1988;DHT22;12775;46.994;15.498;2022-12-10T02:50:58;7.10;99.90
1988;DHT22;12775;46.994;15.498;2022-12-10T02:53:25;7.10;99.90
1988;DHT22;12775;46.994;15.498;2022-12-10T02:56:13;7.10;99.90
1988;DHT22;12775;46.994;15.498;2022-12-10T02:58:49;7.10;99.90
1988;DHT22;12775;46.994;15.498;2022-12-10T03:02:22;7.00;99.90
1988;DHT22;12775;46.994;15.498;2022-12-10T03:04:01;7.00;99.90
1988;DHT22;12775;46.994;15.498;2022-12-10T03:06:32;6.90;99.90
1988;DHT22;12775;46.994;15.498;2022-12-10T03:09:02;6.90;99.90
1988;DHT22;12775;46.994;15.498;2022-12-10T03:11:28;6.90;99.90
1988;DHT22;12775;46.994;15.498;2022-12-10T03:14:06;6.80;99.90
1988;DHT22;12775;46.994;15.498;2022-12-10T03:16:36;6.80;99.90
1988;DHT22;12775;46.994;15.498;2022-12-10T03:19:05;6.80;99.90
1988;DHT22;12775;46.994;15.498;2022-12-10T03:21:32;6.80;99.90
1988;DHT22;12775;46.994;15.498;2022-12-10T03:23:59;6.80;99.90
1988;DHT22;12775;46.994;15.498;2022-12-10T03:26:26;6.80;99.90
1988;DHT22;12775;46.994;15.498;2022-12-10T03:28:58;6.80;99.90
1988;DHT22;12775;46.994;15.498;2022-12-10T03:31:24;6.80;99.90
1988;DHT22;12775;46.994;15.498;2022-12-10T03:33:51;6.80;99.90
1988;DHT22;12775;46.994;15.498;2022-12-10T03:36:18;6.80;99.90
1988;DHT22;12775;46.994;15.498;2022-12-10T03:38:47;6.90;99.90
1988;DHT22;12775;46.994;15.498;2022-12-10T03:41:14;6.90;99.90
1988;DHT22;12775;46.994;15.498;2022-12-10T03:43:53;6.90;99.90
1988;DHT22;12775;46.994;15.498;2022-12-10T03:46:20;7.00;99.90
1988;DHT22;12775;46.994;15.498;2022-12-10T03:48:47;7.00;99.90
1988;DHT22;12775;46.994;15.498;2022-12-10T03:51:15;7.00;99.90
1988;DHT22;12775;46.994;15.498;2022-12-10T03:53:42;7.00;99.90
1988;DHT22;12775;46.994;15.498;2022-12-10T03:56:10;7.10;99.90
1988;DHT22;12775;46.994;15.498;2022-12-10T03:58:37;7.10;99.90
1988;DHT22;12775;46.994;15.498;2022-12-10T04:01:04;7.10;99.90
1988;DHT22;12775;46.994;15.498;2022-12-10T04:03:37;7.10;99.90
1988;DHT22;12775;46.994;15.498;2022-12-10T04:06:04;7.10;99.90
1988;DHT22;12775;46.994;15.498;2022-12-10T04:08:31;7.10;99.90
1988;DHT22;12775;46.994;15.498;2022-12-10T04:11:05;7.10;99.90
1988;DHT22;12775;46.994;15.498;2022-12-10T04:13:32;7.10;99.90
1988;DHT22;12775;46.994;15.498;2022-12-10T04:16:05;7.10;99.90
1988;DHT22;12775;46.994;15.498;2022-12-10T04:18:38;7.10;99.90
1988;DHT22;12775;46.994;15.498;2022-12-10T04:21:05;7.10;99.90
1988;DHT22;12775;46.994;15.498;2022-12-10T04:23:38;7.10;99.90
1988;DHT22;12775;46.994;15.498;2022-12-10T04:26:11;7.10;99.90
1988;DHT22;12775;46.994;15.498;2022-12-10T04:28:44;7.10;99.90
1988;DHT22;12775;46.994;15.498;2022-12-10T04:31:12;7.10;99.90
1988;DHT22;12775;46.994;15.498;2022-12-10T04:33:39;7.10;99.90
1988;DHT22;12775;46.994;15.498;2022-12-10T04:36:07;7.00;99.90
1988;DHT22;12775;46.994;15.498;2022-12-10T04:38:34;7.10;99.90
1988;DHT22;12775;46.994;15.498;2022-12-10T04:41:02;7.10;99.90
1988;DHT22;12775;46.994;15.498;2022-12-10T04:43:29;7.10;99.90
1988;DHT22;12775;46.994;15.498;2022-12-10T04:45:57;7.10;99.90
1988;DHT22;12775;46.994;15.498;2022-12-10T04:48:24;7.20;99.90
1988;DHT22;12775;46.994;15.498;2022-12-10T04:50:51;7.20;99.90
1988;DHT22;12775;46.994;15.498;2022-12-10T04:53:19;7.20;99.90
1988;DHT22;12775;46.994;15.498;2022-12-10T04:55:46;7.30;99.90
1988;DHT22;12775;46.994;15.498;2022-12-10T04:58:13;7.30;99.90
1988;DHT22;12775;46.994;15.498;2022-12-10T05:00:41;7.30;99.90
1988;DHT22;12775;46.994;15.498;2022-12-10T05:03:08;7.30;99.90
1988;DHT22;12775;46.994;15.498;2022-12-10T05:05:35;7.30;99.90
1988;DHT22;12775;46.994;15.498;2022-12-10T05:08:03;7.30;99.90
1988;DHT22;12775;46.994;15.498;2022-12-10T05:10:30;7.30;99.90
1988;DHT22;12775;46.994;15.498;2022-12-10T05:12:58;7.30;99.90
1988;DHT22;12775;46.994;15.498;2022-12-10T05:15:25;7.40;99.90
1988;DHT22;12775;46.994;15.498;2022-12-10T05:17:52;7.40;99.90
1988;DHT22;12775;46.994;15.498;2022-12-10T05:20:20;7.40;99.90
1988;DHT22;12775;46.994;15.498;2022-12-10T05:22:47;7.40;99.90
1988;DHT22;12775;46.994;15.498;2022-12-10T05:25:20;7.40;99.90
1988;DHT22;12775;46.994;15.498;2022-12-10T05:27:48;7.50;99.90
1988;DHT22;12775;46.994;15.498;2022-12-10T05:30:15;7.50;99.90
1988;DHT22;12775;46.994;15.498;2022-12-10T05:32:42;7.50;99.90
1988;DHT22;12775;46.994;15.498;2022-12-10T05:35:10;7.50;99.90
1988;DHT22;12775;46.994;15.498;2022-12-10T05:37:37;7.50;99.90
1988;DHT22;12775;46.994;15.498;2022-12-10T05:40:06;7.50;99.90
1988;DHT22;12775;46.994;15.498;2022-12-10T05:42:32;7.50;99.90
1988;DHT22;12775;46.994;15.498;2022-12-10T05:45:00;7.60;99.90
1988;DHT22;12775;46.994;15.498;2022-12-10T05:47:28;7.60;99.90
1988;DHT22;12775;46.994;15.498;2022-12-10T05:49:55;7.50;99.90
1988;DHT22;12775;46.994;15.498;2022-12-10T05:52:23;7.60;99.90
1988;DHT22;12775;46.994;15.498;2022-12-10T05:54:50;7.60;99.90
1988;DHT22;12775;46.994;15.498;2022-12-10T05:57:17;7.60;99.90
1988;DHT22;12775;46.994;15.498;2022-12-10T05:59:45;7.60;99.90
1988;DHT22;12775;46.994;15.498;2022-12-10T06:02:12;7.60;99.90
1988;DHT22;12775;46.994;15.498;2022-12-10T06:04:39;7.60;99.90
1988;DHT22;12775;46.994;15.498;2022-12-10T06:07:07;7.60;99.90
1988;DHT22;12775;46.994;15.498;2022-12-10T06:09:34;7.60;99.90
1988;DHT22;12775;46.994;15.498;2022-12-10T06:12:02;7.60;99.90
1988;DHT22;12775;46.994;15.498;2022-12-10T06:14:29;7.60;99.90
1988;DHT22;12775;46.994;15.498;2022-12-10T06:16:56;7.60;99.90
1988;DHT22;12775;46.994;15.498;2022-12-10T06:19:24;7.60;99.90
1988;DHT22;12775;46.994;15.498;2022-12-10T06:21:51;7.70;99.90
1988;DHT22;12775;46.994;15.498;2022-12-10T06:24:18;7.60;99.90
1988;DHT22;12775;46.994;15.498;2022-12-10T06:26:46;7.70;99.90
1988;DHT22;12775;46.994;15.498;2022-12-10T06:29:13;7.70;99.90
1988;DHT22;12775;46.994;15.498;2022-12-10T06:31:40;7.70;99.90
1988;DHT22;12775;46.994;15.498;2022-12-10T06:34:09;7.70;99.90
1988;DHT22;12775;46.994;15.498;2022-12-10T06:36:36;7.70;99.90
1988;DHT22;12775;46.994;15.498;2022-12-10T06:39:03;7.70;99.90
1988;DHT22;12775;46.994;15.498;2022-12-10T06:41:31;7.80;99.90
1988;DHT22;12775;46.994;15.498;2022-12-10T06:43:59;7.70;99.90
1988;DHT22;12775;46.994;15.498;2022-12-10T06:46:26;7.80;99.90
1988;DHT22;12775;46.994;15.498;2022-12-10T06:48:55;7.80;99.90
1988;DHT22;12775;46.994;15.498;2022-12-10T06:51:22;7.80;99.90
1988;DHT22;12775;46.994;15.498;2022-12-10T06:53:49;7.80;99.90
1988;DHT22;12775;46.994;15.498;2022-12-10T06:56:18;7.80;99.90
1988;DHT22;12775;46.994;15.498;2022-12-10T06:58:44;7.80;99.90
1988;DHT22;12775;46.994;15.498;2022-12-10T07:01:14;7.90;99.90
1988;DHT22;12775;46.994;15.498;2022-12-10T07:03:40;7.90;99.90
1988;DHT22;12775;46.994;15.498;2022-12-10T07:06:07;7.90;99.90
1988;DHT22;12775;46.994;15.498;2022-12-10T07:08:35;7.90;99.90
1988;DHT22;12775;46.994;15.498;2022-12-10T07:11:04;7.90;99.90
1988;DHT22;12775;46.994;15.498;2022-12-10T07:13:31;7.90;99.90
1988;DHT22;12775;46.994;15.498;2022-12-10T07:15:59;7.80;99.90
1988;DHT22;12775;46.994;15.498;2022-12-10T07:18:27;7.90;99.90
1988;DHT22;12775;46.994;15.498;2022-12-10T07:20:54;7.80;99.90
1988;DHT22;12775;46.994;15.498;2022-12-10T07:23:21;7.80;99.90
1988;DHT22;12775;46.994;15.498;2022-12-10T07:25:49;7.80;99.90
1988;DHT22;12775;46.994;15.498;2022-12-10T07:28:16;7.70;99.90
1988;DHT22;12775;46.994;15.498;2022-12-10T07:30:43;7.70;99.90
1988;DHT22;12775;46.994;15.498;2022-12-10T07:33:11;7.70;99.90
1988;DHT22;12775;46.994;15.498;2022-12-10T07:35:38;7.70;99.90
1988;DHT22;12775;46.994;15.498;2022-12-10T07:38:05;7.60;99.90
1988;DHT22;12775;46.994;15.498;2022-12-10T07:40:33;7.60;99.90
1988;DHT22;12775;46.994;15.498;2022-12-10T07:43:00;7.60;99.90
1988;DHT22;12775;46.994;15.498;2022-12-10T07:45:27;7.60;99.90
1988;DHT22;12775;46.994;15.498;2022-12-10T07:47:54;7.60;99.90
1988;DHT22;12775;46.994;15.498;2022-12-10T07:50:21;7.60;99.90
1988;DHT22;12775;46.994;15.498;2022-12-10T07:52:49;7.50;99.90
1988;DHT22;12775;46.994;15.498;2022-12-10T07:55:17;7.50;99.90
1988;DHT22;12775;46.994;15.498;2022-12-10T07:57:44;7.50;99.90
1988;DHT22;12775;46.994;15.498;2022-12-10T08:00:12;7.40;99.90
1988;DHT22;12775;46.994;15.498;2022-12-10T08:02:40;7.40;99.90
1988;DHT22;12775;46.994;15.498;2022-12-10T08:05:08;7.30;99.90
1988;DHT22;12775;46.994;15.498;2022-12-10T08:07:35;7.10;99.90
1988;DHT22;12775;46.994;15.498;2022-12-10T08:10:03;7.00;99.90
1988;DHT22;12775;46.994;15.498;2022-12-10T08:12:30;6.80;99.90
1988;DHT22;12775;46.994;15.498;2022-12-10T08:14:58;6.70;99.90
1988;DHT22;12775;46.994;15.498;2022-12-10T08:17:25;6.60;99.90
1988;DHT22;12775;46.994;15.498;2022-12-10T08:19:52;6.60;99.90
1988;DHT22;12775;46.994;15.498;2022-12-10T08:22:20;6.60;99.90
1988;DHT22;12775;46.994;15.498;2022-12-10T08:24:47;6.60;99.90
1988;DHT22;12775;46.994;15.498;2022-12-10T08:27:14;6.60;99.90
1988;DHT22;12775;46.994;15.498;2022-12-10T08:29:42;6.70;99.90
1988;DHT22;12775;46.994;15.498;2022-12-10T08:32:09;6.60;99.90
1988;DHT22;12775;46.994;15.498;2022-12-10T08:34:37;6.70;99.90
1988;DHT22;12775;46.994;15.498;2022-12-10T08:37:04;6.70;99.90
1988;DHT22;12775;46.994;15.498;2022-12-10T08:39:31;6.80;99.90
1988;DHT22;12775;46.994;15.498;2022-12-10T08:41:59;6.80;99.90
1988;DHT22;12775;46.994;15.498;2022-12-10T08:44:26;6.90;99.90
1988;DHT22;12775;46.994;15.498;2022-12-10T08:46:53;7.00;99.90
1988;DHT22;12775;46.994;15.498;2022-12-10T08:49:21;7.00;99.90
1988;DHT22;12775;46.994;15.498;2022-12-10T08:51:48;7.10;99.90
1988;DHT22;12775;46.994;15.498;2022-12-10T08:54:16;7.20;99.90
1988;DHT22;12775;46.994;15.498;2022-12-10T08:56:44;7.20;99.90
1988;DHT22;12775;46.994;15.498;2022-12-10T08:59:11;7.20;99.90
1988;DHT22;12775;46.994;15.498;2022-12-10T09:01:38;7.30;99.90
1988;DHT22;12775;46.994;15.498;2022-12-10T09:04:06;7.30;99.90
1988;DHT22;12775;46.994;15.498;2022-12-10T09:06:33;7.30;99.90
1988;DHT22;12775;46.994;15.498;2022-12-10T09:09:01;7.30;99.90
1988;DHT22;12775;46.994;15.498;2022-12-10T09:11:29;7.40;99.90
1988;DHT22;12775;46.994;15.498;2022-12-10T09:13:56;7.40;99.90
1988;DHT22;12775;46.994;15.498;2022-12-10T09:16:34;7.40;99.90
1988;DHT22;12775;46.994;15.498;2022-12-10T09:18:59;7.40;99.90
1988;DHT22;12775;46.994;15.498;2022-12-10T09:21:27;7.40;99.90
1988;DHT22;12775;46.994;15.498;2022-12-10T09:23:54;7.40;99.90
1988;DHT22;12775;46.994;15.498;2022-12-10T09:26:21;7.40;99.90
1988;DHT22;12775;46.994;15.498;2022-12-10T09:28:49;7.30;99.90
1988;DHT22;12775;46.994;15.498;2022-12-10T09:31:16;7.40;99.90
1988;DHT22;12775;46.994;15.498;2022-12-10T09:33:44;7.40;99.90
1988;DHT22;12775;46.994;15.498;2022-12-10T09:36:11;7.50;99.90
1988;DHT22;12775;46.994;15.498;2022-12-10T09:38:39;7.50;99.90
1988;DHT22;12775;46.994;15.498;2022-12-10T09:41:36;7.50;99.90
1988;DHT22;12775;46.994;15.498;2022-12-10T09:44:31;7.50;99.90
1988;DHT22;12775;46.994;15.498;2022-12-10T09:46:52;7.40;99.90
1988;DHT22;12775;46.994;15.498;2022-12-10T09:51:55;7.40;99.90
1988;DHT22;12775;46.994;15.498;2022-12-10T09:57:06;7.40;99.90
1988;DHT22;12775;46.994;15.498;2022-12-10T09:59:38;7.40;99.90
1988;DHT22;12775;46.994;15.498;2022-12-10T10:05:09;7.40;99.90
1988;DHT22;12775;46.994;15.498;2022-12-10T10:07:29;7.30;99.90
1988;DHT22;12775;46.994;15.498;2022-12-10T10:09:58;7.40;99.90
1988;DHT22;12775;46.994;15.498;2022-12-10T10:12:25;7.40;99.90
1988;DHT22;12775;46.994;15.498;2022-12-10T10:14:51;7.40;99.90
1988;DHT22;12775;46.994;15.498;2022-12-10T10:17:22;7.50;99.90
1988;DHT22;12775;46.994;15.498;2022-12-10T10:19:48;7.50;99.90
1988;DHT22;12775;46.994;15.498;2022-12-10T10:22:16;7.50;99.90
1988;DHT22;12775;46.994;15.498;2022-12-10T10:24:44;7.50;99.90
1988;DHT22;12775;46.994;15.498;2022-12-10T10:27:15;7.50;99.90
1988;DHT22;12775;46.994;15.498;2022-12-10T10:29:43;7.40;99.90
1988;DHT22;12775;46.994;15.498;2022-12-10T10:35:09;7.50;99.90
1988;DHT22;12775;46.994;15.498;2022-12-10T10:37:40;7.40;99.90
1988;DHT22;12775;46.994;15.498;2022-12-10T10:40:15;7.50;99.90
1988;DHT22;12775;46.994;15.498;2022-12-10T10:42:35;7.40;99.90
1988;DHT22;12775;46.994;15.498;2022-12-10T10:45:05;7.30;99.90
1988;DHT22;12775;46.994;15.498;2022-12-10T10:47:33;7.40;99.90
1988;DHT22;12775;46.994;15.498;2022-12-10T10:49:59;7.30;99.90
1988;DHT22;12775;46.994;15.498;2022-12-10T10:52:30;7.30;99.90
1988;DHT22;12775;46.994;15.498;2022-12-10T10:54:56;7.30;99.90
1988;DHT22;12775;46.994;15.498;2022-12-10T10:57:29;7.40;99.90
1988;DHT22;12775;46.994;15.498;2022-12-10T10:59:55;7.40;99.90
1988;DHT22;12775;46.994;15.498;2022-12-10T11:02:30;7.50;99.90
1988;DHT22;12775;46.994;15.498;2022-12-10T11:04:54;7.40;99.90
1988;DHT22;12775;46.994;15.498;2022-12-10T11:07:23;7.60;99.90
1988;DHT22;12775;46.994;15.498;2022-12-10T11:09:49;7.60;99.90
1988;DHT22;12775;46.994;15.498;2022-12-10T11:12:36;7.60;99.90
1988;DHT22;12775;46.994;15.498;2022-12-10T11:15:37;7.60;99.90
1988;DHT22;12775;46.994;15.498;2022-12-10T11:18:16;7.60;99.90
1988;DHT22;12775;46.994;15.498;2022-12-10T11:20:32;7.60;99.90
1988;DHT22;12775;46.994;15.498;2022-12-10T11:23:01;7.60;99.90
1988;DHT22;12775;46.994;15.498;2022-12-10T11:25:55;7.60;99.90
1988;DHT22;12775;46.994;15.498;2022-12-10T11:28:47;7.40;99.90
1988;DHT22;12775;46.994;15.498;2022-12-10T11:31:16;7.40;99.90
1988;DHT22;12775;46.994;15.498;2022-12-10T11:36:37;7.20;99.90
1988;DHT22;12775;46.994;15.498;2022-12-10T11:39:10;7.00;99.90
1988;DHT22;12775;46.994;15.498;2022-12-10T11:41:43;6.80;99.90
1988;DHT22;12775;46.994;15.498;2022-12-10T11:44:16;6.80;99.90
1988;DHT22;12775;46.994;15.498;2022-12-10T11:46:54;6.80;99.90
1988;DHT22;12775;46.994;15.498;2022-12-10T11:54:52;6.60;99.90
1988;DHT22;12775;46.994;15.498;2022-12-10T11:57:28;6.50;99.90
1988;DHT22;12775;46.994;15.498;2022-12-10T12:00:14;6.50;99.90
1988;DHT22;12775;46.994;15.498;2022-12-10T12:03:00;6.40;99.90
1988;DHT22;12775;46.994;15.498;2022-12-10T12:05:34;6.40;99.90
1988;DHT22;12775;46.994;15.498;2022-12-10T12:11:18;6.10;99.90
1988;DHT22;12775;46.994;15.498;2022-12-10T12:13:28;6.20;99.90
1988;DHT22;12775;46.994;15.498;2022-12-10T12:16:03;6.10;99.90
1988;DHT22;12775;46.994;15.498;2022-12-10T12:18:59;6.10;99.90
1988;DHT22;12775;46.994;15.498;2022-12-10T12:21:26;6.10;99.90
1988;DHT22;12775;46.994;15.498;2022-12-10T12:24:01;6.00;99.90
1988;DHT22;12775;46.994;15.498;2022-12-10T12:26:29;6.10;99.90
1988;DHT22;12775;46.994;15.498;2022-12-10T12:29:06;6.00;99.90
1988;DHT22;12775;46.994;15.498;2022-12-10T12:31:42;6.10;99.90
1988;DHT22;12775;46.994;15.498;2022-12-10T12:34:18;6.10;99.90
1988;DHT22;12775;46.994;15.498;2022-12-10T12:36:43;6.10;99.90
1988;DHT22;12775;46.994;15.498;2022-12-10T12:39:20;6.10;99.90
1988;DHT22;12775;46.994;15.498;2022-12-10T12:41:57;6.20;99.90
1988;DHT22;12775;46.994;15.498;2022-12-10T12:44:32;6.20;99.90
1988;DHT22;12775;46.994;15.498;2022-12-10T12:46:58;6.30;99.90
1988;DHT22;12775;46.994;15.498;2022-12-10T12:49:29;6.30;99.90
1988;DHT22;12775;46.994;15.498;2022-12-10T12:52:00;6.30;99.90
1988;DHT22;12775;46.994;15.498;2022-12-10T12:54:26;6.30;99.90
1988;DHT22;12775;46.994;15.498;2022-12-10T12:56:59;6.40;99.90
1988;DHT22;12775;46.994;15.498;2022-12-10T12:59:33;6.20;99.90
1988;DHT22;12775;46.994;15.498;2022-12-10T13:02:06;6.20;99.90
1988;DHT22;12775;46.994;15.498;2022-12-10T13:04:29;6.20;99.90
1988;DHT22;12775;46.994;15.498;2022-12-10T13:09:43;6.10;99.90
1988;DHT22;12775;46.994;15.498;2022-12-10T13:12:26;6.10;99.90
1988;DHT22;12775;46.994;15.498;2022-12-10T13:15:14;6.10;99.90
1988;DHT22;12775;46.994;15.498;2022-12-10T13:17:39;6.10;99.90
1988;DHT22;12775;46.994;15.498;2022-12-10T13:23:03;5.90;99.90
1988;DHT22;12775;46.994;15.498;2022-12-10T13:28:41;5.70;99.90
1988;DHT22;12775;46.994;15.498;2022-12-10T13:31:13;5.60;99.90
1988;DHT22;12775;46.994;15.498;2022-12-10T13:34:19;5.50;99.90
1988;DHT22;12775;46.994;15.498;2022-12-10T13:39:34;5.60;99.90
1988;DHT22;12775;46.994;15.498;2022-12-10T13:42:26;5.60;99.90
1988;DHT22;12775;46.994;15.498;2022-12-10T13:47:45;5.60;99.90
1988;DHT22;12775;46.994;15.498;2022-12-10T13:50:34;5.70;99.90
1988;DHT22;12775;46.994;15.498;2022-12-10T13:53:14;5.60;99.90
1988;DHT22;12775;46.994;15.498;2022-12-10T13:55:39;5.60;99.90
1988;DHT22;12775;46.994;15.498;2022-12-10T14:02:00;5.60;99.90
1988;DHT22;12775;46.994;15.498;2022-12-10T14:06:25;5.50;99.90
1988;DHT22;12775;46.994;15.498;2022-12-10T14:09:02;5.50;99.90
1988;DHT22;12775;46.994;15.498;2022-12-10T14:11:29;5.30;99.90
1988;DHT22;12775;46.994;15.498;2022-12-10T14:13:56;5.40;99.90
1988;DHT22;12775;46.994;15.498;2022-12-10T14:16:22;5.40;99.90
1988;DHT22;12775;46.994;15.498;2022-12-10T14:18:53;5.40;99.90
1988;DHT22;12775;46.994;15.498;2022-12-10T14:21:18;5.40;99.90
1988;DHT22;12775;46.994;15.498;2022-12-10T14:23:46;5.50;99.90
1988;DHT22;12775;46.994;15.498;2022-12-10T14:26:14;5.50;99.90
1988;DHT22;12775;46.994;15.498;2022-12-10T14:28:41;5.60;99.90
1988;DHT22;12775;46.994;15.498;2022-12-10T14:31:13;5.60;99.90
1988;DHT22;12775;46.994;15.498;2022-12-10T14:33:39;5.70;99.90
1988;DHT22;12775;46.994;15.498;2022-12-10T14:36:06;5.80;99.90
1988;DHT22;12775;46.994;15.498;2022-12-10T14:38:35;5.80;99.90
1988;DHT22;12775;46.994;15.498;2022-12-10T14:41:02;5.90;99.90
1988;DHT22;12775;46.994;15.498;2022-12-10T14:43:35;6.00;99.90
1988;DHT22;12775;46.994;15.498;2022-12-10T14:46:00;6.00;99.90
1988;DHT22;12775;46.994;15.498;2022-12-10T14:48:28;6.00;99.90
1988;DHT22;12775;46.994;15.498;2022-12-10T14:51:02;6.10;99.90
1988;DHT22;12775;46.994;15.498;2022-12-10T14:53:24;6.10;99.90
1988;DHT22;12775;46.994;15.498;2022-12-10T14:55:53;6.10;99.90
1988;DHT22;12775;46.994;15.498;2022-12-10T14:58:28;6.10;99.90
1988;DHT22;12775;46.994;15.498;2022-12-10T15:00:53;6.20;99.90
1988;DHT22;12775;46.994;15.498;2022-12-10T15:03:26;6.10;99.90
1988;DHT22;12775;46.994;15.498;2022-12-10T15:05:55;6.10;99.90
1988;DHT22;12775;46.994;15.498;2022-12-10T15:08:21;6.10;99.90
1988;DHT22;12775;46.994;15.498;2022-12-10T15:10:50;6.20;99.90
1988;DHT22;12775;46.994;15.498;2022-12-10T15:13:19;6.20;99.90
1988;DHT22;12775;46.994;15.498;2022-12-10T15:15:47;6.30;99.90
1988;DHT22;12775;46.994;15.498;2022-12-10T15:18:16;6.30;99.90
1988;DHT22;12775;46.994;15.498;2022-12-10T15:20:48;6.40;99.90
1988;DHT22;12775;46.994;15.498;2022-12-10T15:23:31;6.40;99.90
1988;DHT22;12775;46.994;15.498;2022-12-10T15:26:02;6.40;99.90
1988;DHT22;12775;46.994;15.498;2022-12-10T15:28:28;6.30;99.90
1988;DHT22;12775;46.994;15.498;2022-12-10T15:31:30;6.20;99.90
1988;DHT22;12775;46.994;15.498;2022-12-10T15:33:43;6.20;99.90
1988;DHT22;12775;46.994;15.498;2022-12-10T15:36:35;6.20;99.90
1988;DHT22;12775;46.994;15.498;2022-12-10T15:39:04;6.20;99.90
1988;DHT22;12775;46.994;15.498;2022-12-10T15:41:36;6.10;99.90
1988;DHT22;12775;46.994;15.498;2022-12-10T15:44:03;6.10;99.90
1988;DHT22;12775;46.994;15.498;2022-12-10T15:46:28;6.10;99.90
1988;DHT22;12775;46.994;15.498;2022-12-10T15:48:56;6.20;99.90
1988;DHT22;12775;46.994;15.498;2022-12-10T15:51:24;6.20;99.90
1988;DHT22;12775;46.994;15.498;2022-12-10T15:53:50;6.20;99.90
1988;DHT22;12775;46.994;15.498;2022-12-10T15:56:18;6.30;99.90
1988;DHT22;12775;46.994;15.498;2022-12-10T15:58:45;6.30;99.90
1988;DHT22;12775;46.994;15.498;2022-12-10T16:01:13;6.40;99.90
1988;DHT22;12775;46.994;15.498;2022-12-10T16:03:41;6.40;99.90
1988;DHT22;12775;46.994;15.498;2022-12-10T16:06:08;6.50;99.90
1988;DHT22;12775;46.994;15.498;2022-12-10T16:08:35;6.50;99.90
1988;DHT22;12775;46.994;15.498;2022-12-10T16:11:06;6.50;99.90
1988;DHT22;12775;46.994;15.498;2022-12-10T16:13:31;6.50;99.90
1988;DHT22;12775;46.994;15.498;2022-12-10T16:16:03;6.50;99.90
1988;DHT22;12775;46.994;15.498;2022-12-10T16:18:28;6.60;99.90
1988;DHT22;12775;46.994;15.498;2022-12-10T16:20:55;6.60;99.90
1988;DHT22;12775;46.994;15.498;2022-12-10T16:23:23;6.60;99.90
1988;DHT22;12775;46.994;15.498;2022-12-10T16:25:51;6.60;99.90
1988;DHT22;12775;46.994;15.498;2022-12-10T16:28:20;6.70;99.90
1988;DHT22;12775;46.994;15.498;2022-12-10T16:30:48;6.70;99.90
1988;DHT22;12775;46.994;15.498;2022-12-10T16:33:15;6.70;99.90
1988;DHT22;12775;46.994;15.498;2022-12-10T16:35:44;6.70;99.90
1988;DHT22;12775;46.994;15.498;2022-12-10T16:38:11;6.70;99.90
1988;DHT22;12775;46.994;15.498;2022-12-10T16:40:38;6.70;99.90
1988;DHT22;12775;46.994;15.498;2022-12-10T16:43:06;6.70;99.90
1988;DHT22;12775;46.994;15.498;2022-12-10T16:45:34;6.70;99.90
1988;DHT22;12775;46.994;15.498;2022-12-10T16:48:01;6.60;99.90